Pozzuoli, Italy

2:18 AM CEST on September 04, 2015 (GMT +0200)
INAPOLIP2 | | Change Station
CLOSE
Current Station
Personal Weather Station
Location: Pozzuoli, Campania
Elevation: 141 ft
Nearby Weather Stations

Elev 141 ft 40.82 °N, 14.13 °E | Updated 9 seconds ago

Scattered Clouds
Scattered Clouds
77.8 °F
Feels Like 80 °F
N
5.0
Wind Variable Wind from South
Gusts 8.0 mph

Today
High -- | Low -- °F
--% Chance of Precip.
Yesterday
High -- | Low -- °F
Precip. -- in
6:32 AM 7:31 PM
Waning Gibbous, 65% visible
Pressure 29.92 in
Visibility 6.2 miles
Clouds Scattered Clouds 1500 ft
Heat Index 80 °F
Dew Point 73 °F
Humidity 85%
Rainfall 0.00 in
Snow Depth Not available.
UV 0 out of 12
Pollen Not available.
Air Quality Not available.
Flu Activity Not available.
METAR LIRM 032355Z 02003KT 9999 SCT015 23/22 Q1013
Pressure 29.92 in
Visibility 6.2 miles
Clouds Scattered Clouds 1500 ft
Heat Index 80 °F
Dew Point 73 °F
Humidity 85%
Rainfall 0.00 in
Snow Depth Not available.
UV 0 out of 12
Pollen Not available.
Air Quality Not available.
Flu Activity Not available.
METAR LIRM 032355Z 02003KT 9999 SCT015 23/22 Q1013

10-Day Weather Forecast

×

Almanac

Astronomy

Sep. 04, 2015 Rise Set
Actual Time
Civil Twilight
Nautical Twilight
Astronomical Twilight
Moon
Length of Visible Light
Length of Day
Tomorrow will be .
, % of the Moon is Illuminated

Today's Extremes

Country Highs Country Lows

Community

WunderPhotos

Upload Photos

1,852,068 photos uploaded!

WunderBlogs® & News

Nearby

Air Quality

  Air Quality AQ Index Pollutant
Not available.

Snow Depth

Station Depth Elevation

Earthquake Activity

City Distance Mag. Time & Date
Minimum magnitude displayed is 2.5.

Coastal Water Temperatures

Place Temperature

Stations

Nearby Weather Stations

Station Location Temp. Windchill Dew Point Humidity Wind Precip. Elev Updated Type